sensor_id;sensor_type;location;lat;lon;timestamp;pressure;altitude;pressure_sealevel;temperature;humidity
20710;BME280;10516;51.518;9.864;2022-11-20T00:01:33;98459.03;;;-0.47;68.60
20710;BME280;10516;51.518;9.864;2022-11-20T00:03:59;98460.16;;;-0.35;68.85
20710;BME280;10516;51.518;9.864;2022-11-20T00:06:25;98444.84;;;-0.32;68.01
20710;BME280;10516;51.518;9.864;2022-11-20T00:08:54;98439.59;;;-0.32;67.74
20710;BME280;10516;51.518;9.864;2022-11-20T00:11:22;98458.78;;;-0.31;67.43
20710;BME280;10516;51.518;9.864;2022-11-20T00:13:50;98452.56;;;-0.24;67.91
20710;BME280;10516;51.518;9.864;2022-11-20T00:16:19;98456.56;;;-0.28;67.81
20710;BME280;10516;51.518;9.864;2022-11-20T00:18:45;98435.66;;;-0.21;66.98
20710;BME280;10516;51.518;9.864;2022-11-20T00:21:15;98458.31;;;-0.14;66.79
20710;BME280;10516;51.518;9.864;2022-11-20T00:23:42;98427.94;;;-1.14;68.17
20710;BME280;10516;51.518;9.864;2022-11-20T00:26:09;98430.28;;;-0.83;68.58
20710;BME280;10516;51.518;9.864;2022-11-20T00:28:35;98451.13;;;-0.26;67.44
20710;BME280;10516;51.518;9.864;2022-11-20T00:31:06;98444.94;;;-0.19;67.17
20710;BME280;10516;51.518;9.864;2022-11-20T00:33:31;98435.03;;;-2.02;69.09
20710;BME280;10516;51.518;9.864;2022-11-20T00:36:05;98431.78;;;-2.04;71.67
20710;BME280;10516;51.518;9.864;2022-11-20T00:38:31;98438.78;;;-0.96;69.65
20710;BME280;10516;51.518;9.864;2022-11-20T00:40:58;98412.47;;;-0.66;67.66
20710;BME280;10516;51.518;9.864;2022-11-20T00:43:24;98431.38;;;-0.50;67.14
20710;BME280;10516;51.518;9.864;2022-11-20T00:45:49;98457.47;;;-0.42;67.34
20710;BME280;10516;51.518;9.864;2022-11-20T00:48:15;98457.84;;;-0.66;68.53
20710;BME280;10516;51.518;9.864;2022-11-20T00:50:41;98436.72;;;-0.37;67.26
20710;BME280;10516;51.518;9.864;2022-11-20T00:53:06;98431.06;;;-0.40;67.07
20710;BME280;10516;51.518;9.864;2022-11-20T00:55:32;98441.50;;;-0.19;66.58
20710;BME280;10516;51.518;9.864;2022-11-20T00:57:57;98452.19;;;-0.21;66.75
20710;BME280;10516;51.518;9.864;2022-11-20T01:00:23;98451.69;;;-0.10;66.67
20710;BME280;10516;51.518;9.864;2022-11-20T01:02:48;98438.25;;;-0.21;65.89
20710;BME280;10516;51.518;9.864;2022-11-20T01:05:13;98454.25;;;-0.16;65.80
20710;BME280;10516;51.518;9.864;2022-11-20T01:07:39;98449.16;;;-0.45;66.35
20710;BME280;10516;51.518;9.864;2022-11-20T01:10:04;98430.69;;;-0.37;66.62
20710;BME280;10516;51.518;9.864;2022-11-20T01:12:30;98437.75;;;-0.38;66.94
20710;BME280;10516;51.518;9.864;2022-11-20T01:14:55;98430.81;;;-0.24;65.73
20710;BME280;10516;51.518;9.864;2022-11-20T01:17:21;98433.78;;;-0.27;66.48
20710;BME280;10516;51.518;9.864;2022-11-20T01:19:49;98431.63;;;-0.87;67.32
20710;BME280;10516;51.518;9.864;2022-11-20T01:22:15;98415.34;;;-2.87;68.23
20710;BME280;10516;51.518;9.864;2022-11-20T01:24:40;98424.69;;;-3.85;70.37
20710;BME280;10516;51.518;9.864;2022-11-20T01:27:06;98419.59;;;-3.17;73.70
20710;BME280;10516;51.518;9.864;2022-11-20T01:29:31;98405.34;;;-2.83;71.30
20710;BME280;10516;51.518;9.864;2022-11-20T01:31:56;98423.25;;;-4.03;72.34
20710;BME280;10516;51.518;9.864;2022-11-20T01:34:22;98396.25;;;-2.28;73.36
20710;BME280;10516;51.518;9.864;2022-11-20T01:36:48;98393.41;;;-1.38;69.88
20710;BME280;10516;51.518;9.864;2022-11-20T01:39:16;98389.78;;;-1.02;69.06
20710;BME280;10516;51.518;9.864;2022-11-20T01:41:43;98410.63;;;-1.44;66.82
20710;BME280;10516;51.518;9.864;2022-11-20T01:50:06;98383.97;;;-0.55;66.99
20710;BME280;10516;51.518;9.864;2022-11-20T01:52:45;98406.19;;;-0.51;66.97
20710;BME280;10516;51.518;9.864;2022-11-20T01:55:36;98406.28;;;-0.38;65.95
20710;BME280;10516;51.518;9.864;2022-11-20T01:58:05;98395.59;;;-0.36;65.71
20710;BME280;10516;51.518;9.864;2022-11-20T02:00:31;98402.88;;;-0.59;66.02
20710;BME280;10516;51.518;9.864;2022-11-20T02:02:59;98396.19;;;-0.62;65.98
20710;BME280;10516;51.518;9.864;2022-11-20T02:07:55;98396.28;;;-0.77;66.39
20710;BME280;10516;51.518;9.864;2022-11-20T02:10:22;98381.13;;;-0.81;66.97
20710;BME280;10516;51.518;9.864;2022-11-20T02:12:48;98381.91;;;-0.81;66.59
20710;BME280;10516;51.518;9.864;2022-11-20T02:15:32;98371.56;;;-0.89;66.82
20710;BME280;10516;51.518;9.864;2022-11-20T02:17:58;98396.91;;;-0.74;66.93
20710;BME280;10516;51.518;9.864;2022-11-20T02:20:24;98388.09;;;-0.67;66.58
20710;BME280;10516;51.518;9.864;2022-11-20T02:23:04;98380.66;;;-0.85;66.23
20710;BME280;10516;51.518;9.864;2022-11-20T02:25:32;98400.31;;;-0.74;66.16
20710;BME280;10516;51.518;9.864;2022-11-20T02:28:00;98390.84;;;-0.75;66.61
20710;BME280;10516;51.518;9.864;2022-11-20T02:30:26;98396.28;;;-0.77;66.15
20710;BME280;10516;51.518;9.864;2022-11-20T02:32:51;98374.38;;;-0.90;65.84
20710;BME280;10516;51.518;9.864;2022-11-20T02:37:48;98389.59;;;-0.79;66.04
20710;BME280;10516;51.518;9.864;2022-11-20T02:40:14;98395.81;;;-0.80;66.39
20710;BME280;10516;51.518;9.864;2022-11-20T02:42:40;98384.59;;;-0.74;66.28
20710;BME280;10516;51.518;9.864;2022-11-20T02:45:06;98355.66;;;-0.87;65.85
20710;BME280;10516;51.518;9.864;2022-11-20T02:47:32;98366.53;;;-0.90;65.99
20710;BME280;10516;51.518;9.864;2022-11-20T02:49:57;98378.53;;;-0.96;65.63
20710;BME280;10516;51.518;9.864;2022-11-20T02:52:23;98392.84;;;-0.77;66.28
20710;BME280;10516;51.518;9.864;2022-11-20T02:54:49;98391.31;;;-0.65;65.39
20710;BME280;10516;51.518;9.864;2022-11-20T02:57:14;98390.72;;;-0.67;64.91
20710;BME280;10516;51.518;9.864;2022-11-20T02:59:40;98371.66;;;-1.39;65.66
20710;BME280;10516;51.518;9.864;2022-11-20T03:02:05;98384.41;;;-4.29;69.56
20710;BME280;10516;51.518;9.864;2022-11-20T03:04:31;98360.03;;;-3.89;74.03
20710;BME280;10516;51.518;9.864;2022-11-20T03:06:56;98373.53;;;-3.55;70.93
20710;BME280;10516;51.518;9.864;2022-11-20T03:09:21;98384.22;;;-3.42;72.74
20710;BME280;10516;51.518;9.864;2022-11-20T03:11:47;98362.66;;;-3.36;69.50
20710;BME280;10516;51.518;9.864;2022-11-20T03:14:12;98363.47;;;-2.90;71.07
20710;BME280;10516;51.518;9.864;2022-11-20T03:16:38;98366.59;;;-1.91;70.33
20710;BME280;10516;51.518;9.864;2022-11-20T03:19:03;98353.97;;;-1.37;68.18
20710;BME280;10516;51.518;9.864;2022-11-20T03:21:29;98364.22;;;-1.21;66.59
20710;BME280;10516;51.518;9.864;2022-11-20T03:23:54;98362.72;;;-2.09;66.68
20710;BME280;10516;51.518;9.864;2022-11-20T03:26:22;98375.16;;;-1.82;69.23
20710;BME280;10516;51.518;9.864;2022-11-20T03:28:56;98382.22;;;-1.11;66.98
20710;BME280;10516;51.518;9.864;2022-11-20T03:31:25;98387.34;;;-1.03;67.12
20710;BME280;10516;51.518;9.864;2022-11-20T03:33:51;98356.41;;;-1.14;65.77
20710;BME280;10516;51.518;9.864;2022-11-20T03:36:17;98369.38;;;-1.06;66.53
20710;BME280;10516;51.518;9.864;2022-11-20T03:38:43;98364.28;;;-0.93;65.42
20710;BME280;10516;51.518;9.864;2022-11-20T03:41:14;98358.66;;;-0.90;65.82
20710;BME280;10516;51.518;9.864;2022-11-20T03:43:40;98356.78;;;-0.75;65.91
20710;BME280;10516;51.518;9.864;2022-11-20T03:46:07;98352.34;;;-0.96;65.25
20710;BME280;10516;51.518;9.864;2022-11-20T03:48:33;98341.31;;;-0.91;65.09
20710;BME280;10516;51.518;9.864;2022-11-20T03:51:11;98349.66;;;-1.44;67.45
20710;BME280;10516;51.518;9.864;2022-11-20T03:53:38;98344.59;;;-1.46;65.45
20710;BME280;10516;51.518;9.864;2022-11-20T03:56:04;98343.88;;;-2.19;69.15
20710;BME280;10516;51.518;9.864;2022-11-20T03:58:30;98324.31;;;-1.59;68.02
20710;BME280;10516;51.518;9.864;2022-11-20T04:00:55;98326.94;;;-2.23;67.58
20710;BME280;10516;51.518;9.864;2022-11-20T04:03:21;98324.72;;;-4.08;69.48
20710;BME280;10516;51.518;9.864;2022-11-20T04:05:46;98308.91;;;-3.98;72.82
20710;BME280;10516;51.518;9.864;2022-11-20T04:08:11;98303.34;;;-2.45;70.61
20710;BME280;10516;51.518;9.864;2022-11-20T04:10:37;98333.25;;;-3.30;68.13
20710;BME280;10516;51.518;9.864;2022-11-20T04:13:03;98337.22;;;-3.64;72.47
20710;BME280;10516;51.518;9.864;2022-11-20T04:15:28;98300.53;;;-2.43;70.16
20710;BME280;10516;51.518;9.864;2022-11-20T04:17:54;98341.66;;;-1.58;67.91
20710;BME280;10516;51.518;9.864;2022-11-20T04:20:20;98313.66;;;-1.57;66.43
20710;BME280;10516;51.518;9.864;2022-11-20T04:22:45;98322.34;;;-2.21;68.15
20710;BME280;10516;51.518;9.864;2022-11-20T04:25:11;98328.59;;;-1.58;67.67
20710;BME280;10516;51.518;9.864;2022-11-20T04:27:36;98329.09;;;-1.47;66.40
20710;BME280;10516;51.518;9.864;2022-11-20T04:30:02;98313.25;;;-2.25;67.77
20710;BME280;10516;51.518;9.864;2022-11-20T04:32:27;98302.88;;;-2.48;69.60
20710;BME280;10516;51.518;9.864;2022-11-20T04:34:53;98341.66;;;-1.58;67.94
20710;BME280;10516;51.518;9.864;2022-11-20T04:37:18;98312.44;;;-2.26;67.35
20710;BME280;10516;51.518;9.864;2022-11-20T04:39:43;98335.59;;;-2.23;68.95
20710;BME280;10516;51.518;9.864;2022-11-20T04:42:10;98328.00;;;-3.44;68.89
20710;BME280;10516;51.518;9.864;2022-11-20T04:44:54;98343.19;;;-4.17;69.93
20710;BME280;10516;51.518;9.864;2022-11-20T04:47:20;98327.94;;;-4.44;70.36
20710;BME280;10516;51.518;9.864;2022-11-20T04:49:45;98321.59;;;-2.96;71.18
20710;BME280;10516;51.518;9.864;2022-11-20T04:52:11;98328.53;;;-1.93;68.03
20710;BME280;10516;51.518;9.864;2022-11-20T04:54:36;98329.38;;;-1.57;66.71
20710;BME280;10516;51.518;9.864;2022-11-20T04:57:01;98344.16;;;-1.49;66.57
20710;BME280;10516;51.518;9.864;2022-11-20T04:59:27;98352.09;;;-1.43;66.56
20710;BME280;10516;51.518;9.864;2022-11-20T05:01:52;98333.50;;;-1.48;65.94
20710;BME280;10516;51.518;9.864;2022-11-20T05:04:18;98342.03;;;-1.39;65.31
20710;BME280;10516;51.518;9.864;2022-11-20T05:06:43;98329.91;;;-1.47;65.88
20710;BME280;10516;51.518;9.864;2022-11-20T05:09:11;98353.34;;;-1.39;65.43
20710;BME280;10516;51.518;9.864;2022-11-20T05:11:36;98347.47;;;-1.41;65.31
20710;BME280;10516;51.518;9.864;2022-11-20T05:14:02;98328.25;;;-3.09;66.55
20710;BME280;10516;51.518;9.864;2022-11-20T05:16:27;98332.50;;;-3.61;70.26
20710;BME280;10516;51.518;9.864;2022-11-20T05:18:53;98311.44;;;-2.54;68.79
20710;BME280;10516;51.518;9.864;2022-11-20T05:21:19;98347.09;;;-1.74;67.28
20710;BME280;10516;51.518;9.864;2022-11-20T05:23:45;98324.06;;;-1.64;66.27
20710;BME280;10516;51.518;9.864;2022-11-20T05:26:19;98332.28;;;-1.31;65.11
20710;BME280;10516;51.518;9.864;2022-11-20T05:28:46;98324.47;;;-1.24;64.78
20710;BME280;10516;51.518;9.864;2022-11-20T05:31:19;98304.63;;;-1.40;64.73
20710;BME280;10516;51.518;9.864;2022-11-20T05:33:45;98324.69;;;-1.62;64.96
20710;BME280;10516;51.518;9.864;2022-11-20T05:36:12;98331.22;;;-2.97;65.96
20710;BME280;10516;51.518;9.864;2022-11-20T05:38:38;98302.28;;;-2.87;69.66
20710;BME280;10516;51.518;9.864;2022-11-20T05:41:14;98326.44;;;-1.83;67.05
20710;BME280;10516;51.518;9.864;2022-11-20T05:43:42;98321.56;;;-3.11;66.77
20710;BME280;10516;51.518;9.864;2022-11-20T05:46:10;98323.22;;;-4.41;69.12
20710;BME280;10516;51.518;9.864;2022-11-20T05:48:38;98330.59;;;-5.49;71.55
20710;BME280;10516;51.518;9.864;2022-11-20T05:51:06;98319.59;;;-5.27;72.80
20710;BME280;10516;51.518;9.864;2022-11-20T05:53:33;98323.78;;;-5.42;72.68
20710;BME280;10516;51.518;9.864;2022-11-20T05:56:01;98320.38;;;-4.86;73.24
20710;BME280;10516;51.518;9.864;2022-11-20T05:58:27;98316.97;;;-5.43;72.92
20710;BME280;10516;51.518;9.864;2022-11-20T06:00:53;98333.38;;;-4.07;72.69
20710;BME280;10516;51.518;9.864;2022-11-20T06:03:18;98328.25;;;-2.57;69.88
20710;BME280;10516;51.518;9.864;2022-11-20T06:05:44;98335.13;;;-1.97;67.38
20710;BME280;10516;51.518;9.864;2022-11-20T06:08:09;98326.47;;;-1.98;66.69
20710;BME280;10516;51.518;9.864;2022-11-20T06:10:34;98324.88;;;-2.43;68.30
20710;BME280;10516;51.518;9.864;2022-11-20T06:13:00;98308.22;;;-4.39;67.92
20710;BME280;10516;51.518;9.864;2022-11-20T06:15:25;98332.25;;;-5.08;72.30
20710;BME280;10516;51.518;9.864;2022-11-20T06:17:54;98344.47;;;-5.00;72.56
20710;BME280;10516;51.518;9.864;2022-11-20T06:20:21;98333.91;;;-5.07;73.64
20710;BME280;10516;51.518;9.864;2022-11-20T06:22:47;98300.09;;;-5.07;74.37
20710;BME280;10516;51.518;9.864;2022-11-20T06:25:12;98303.00;;;-3.92;74.21
20710;BME280;10516;51.518;9.864;2022-11-20T06:27:38;98308.81;;;-3.06;71.40
20710;BME280;10516;51.518;9.864;2022-11-20T06:30:04;98288.09;;;-2.56;70.08
20710;BME280;10516;51.518;9.864;2022-11-20T06:32:30;98322.84;;;-1.82;67.05
20710;BME280;10516;51.518;9.864;2022-11-20T06:34:55;98320.94;;;-1.74;67.35
20710;BME280;10516;51.518;9.864;2022-11-20T06:37:20;98299.50;;;-1.84;66.70
20710;BME280;10516;51.518;9.864;2022-11-20T06:39:46;98320.03;;;-1.66;66.63
20710;BME280;10516;51.518;9.864;2022-11-20T06:42:11;98314.25;;;-1.76;66.85
20710;BME280;10516;51.518;9.864;2022-11-20T06:44:36;98303.84;;;-4.30;70.08
20710;BME280;10516;51.518;9.864;2022-11-20T06:47:02;98322.44;;;-4.58;73.57
20710;BME280;10516;51.518;9.864;2022-11-20T06:49:29;98330.47;;;-4.83;74.20
20710;BME280;10516;51.518;9.864;2022-11-20T06:51:55;98329.19;;;-5.11;75.73
20710;BME280;10516;51.518;9.864;2022-11-20T06:54:20;98324.13;;;-4.97;76.21
20710;BME280;10516;51.518;9.864;2022-11-20T06:56:49;98308.41;;;-3.40;74.45
20710;BME280;10516;51.518;9.864;2022-11-20T06:59:14;98324.84;;;-2.94;72.05
20710;BME280;10516;51.518;9.864;2022-11-20T07:01:39;98325.91;;;-2.66;71.23
20710;BME280;10516;51.518;9.864;2022-11-20T07:04:05;98300.44;;;-2.35;71.08
20710;BME280;10516;51.518;9.864;2022-11-20T07:06:30;98304.25;;;-2.23;69.45
20710;BME280;10516;51.518;9.864;2022-11-20T07:08:56;98304.66;;;-3.00;71.38
20710;BME280;10516;51.518;9.864;2022-11-20T07:11:22;98286.84;;;-2.97;72.18
20710;BME280;10516;51.518;9.864;2022-11-20T07:13:48;98311.88;;;-2.07;70.25
20710;BME280;10516;51.518;9.864;2022-11-20T07:16:13;98322.03;;;-2.70;71.95
20710;BME280;10516;51.518;9.864;2022-11-20T07:18:39;98297.06;;;-1.85;69.60
20710;BME280;10516;51.518;9.864;2022-11-20T07:21:06;98313.88;;;-1.59;68.68
20710;BME280;10516;51.518;9.864;2022-11-20T07:23:32;98320.44;;;-1.84;69.00
20710;BME280;10516;51.518;9.864;2022-11-20T07:25:57;98288.66;;;-1.66;69.05
20710;BME280;10516;51.518;9.864;2022-11-20T07:28:23;98302.13;;;-1.84;69.24
20710;BME280;10516;51.518;9.864;2022-11-20T07:30:52;98296.78;;;-1.76;69.20
20710;BME280;10516;51.518;9.864;2022-11-20T07:33:18;98321.69;;;-1.80;70.16
20710;BME280;10516;51.518;9.864;2022-11-20T07:35:43;98323.16;;;-2.21;71.75
20710;BME280;10516;51.518;9.864;2022-11-20T07:38:09;98302.78;;;-2.25;71.40
20710;BME280;10516;51.518;9.864;2022-11-20T07:40:34;98326.66;;;-3.18;72.75
20710;BME280;10516;51.518;9.864;2022-11-20T07:42:59;98320.69;;;-3.49;75.26
20710;BME280;10516;51.518;9.864;2022-11-20T07:45:25;98333.19;;;-2.99;74.64
20710;BME280;10516;51.518;9.864;2022-11-20T07:47:51;98326.47;;;-1.98;72.11
20710;BME280;10516;51.518;9.864;2022-11-20T07:50:16;98327.22;;;-1.54;71.19
20710;BME280;10516;51.518;9.864;2022-11-20T07:52:42;98327.78;;;-1.37;69.94
20710;BME280;10516;51.518;9.864;2022-11-20T07:55:09;98322.59;;;-2.46;72.84
20710;BME280;10516;51.518;9.864;2022-11-20T07:57:34;98313.22;;;-2.69;73.83
20710;BME280;10516;51.518;9.864;2022-11-20T08:00:00;98322.91;;;-3.38;75.37
20710;BME280;10516;51.518;9.864;2022-11-20T08:02:25;98330.44;;;-3.20;76.43
20710;BME280;10516;51.518;9.864;2022-11-20T08:04:51;98317.78;;;-3.09;75.97
20710;BME280;10516;51.518;9.864;2022-11-20T08:07:16;98322.19;;;-3.32;78.68
20710;BME280;10516;51.518;9.864;2022-11-20T08:09:41;98324.19;;;-3.95;76.80
20710;BME280;10516;51.518;9.864;2022-11-20T08:12:18;98325.91;;;-3.49;77.97
20710;BME280;10516;51.518;9.864;2022-11-20T08:15:04;98337.84;;;-3.32;76.28
20710;BME280;10516;51.518;9.864;2022-11-20T08:17:29;98317.50;;;-3.90;78.41
20710;BME280;10516;51.518;9.864;2022-11-20T08:19:54;98325.41;;;-4.14;79.30
20710;BME280;10516;51.518;9.864;2022-11-20T08:22:20;98340.41;;;-3.46;78.42
20710;BME280;10516;51.518;9.864;2022-11-20T08:24:46;98334.75;;;-3.89;78.83
20710;BME280;10516;51.518;9.864;2022-11-20T08:27:11;98331.66;;;-4.39;79.75
20710;BME280;10516;51.518;9.864;2022-11-20T08:29:37;98331.06;;;-4.57;80.65
20710;BME280;10516;51.518;9.864;2022-11-20T08:32:02;98349.03;;;-4.23;82.01
20710;BME280;10516;51.518;9.864;2022-11-20T08:34:28;98355.34;;;-4.73;81.42
20710;BME280;10516;51.518;9.864;2022-11-20T08:36:53;98346.16;;;-4.28;81.69
20710;BME280;10516;51.518;9.864;2022-11-20T08:39:18;98344.44;;;-4.05;80.91
20710;BME280;10516;51.518;9.864;2022-11-20T08:41:44;98337.97;;;-4.17;80.06
20710;BME280;10516;51.518;9.864;2022-11-20T08:44:09;98357.22;;;-4.26;81.46
20710;BME280;10516;51.518;9.864;2022-11-20T08:46:41;98369.16;;;-4.80;83.16
20710;BME280;10516;51.518;9.864;2022-11-20T08:49:10;98348.31;;;-5.28;83.86
20710;BME280;10516;51.518;9.864;2022-11-20T08:51:37;98329.47;;;-5.06;84.27
20710;BME280;10516;51.518;9.864;2022-11-20T08:54:03;98351.28;;;-4.99;84.78
20710;BME280;10516;51.518;9.864;2022-11-20T08:56:29;98368.03;;;-4.94;85.56
20710;BME280;10516;51.518;9.864;2022-11-20T08:58:54;98361.50;;;-3.95;85.72
20710;BME280;10516;51.518;9.864;2022-11-20T09:01:21;98330.28;;;-2.30;78.38
20710;BME280;10516;51.518;9.864;2022-11-20T09:03:47;98355.94;;;-3.08;78.31
20710;BME280;10516;51.518;9.864;2022-11-20T09:06:13;98340.25;;;-2.99;79.23
20710;BME280;10516;51.518;9.864;2022-11-20T09:08:38;98343.97;;;-2.28;77.00
20710;BME280;10516;51.518;9.864;2022-11-20T09:11:04;98353.69;;;-1.78;74.96
20710;BME280;10516;51.518;9.864;2022-11-20T09:13:31;98319.66;;;-1.42;74.70
20710;BME280;10516;51.518;9.864;2022-11-20T09:16:00;98356.88;;;-0.90;72.98
20710;BME280;10516;51.518;9.864;2022-11-20T09:18:27;98330.34;;;-0.80;72.56
20710;BME280;10516;51.518;9.864;2022-11-20T09:20:57;98353.97;;;-0.73;72.46
20710;BME280;10516;51.518;9.864;2022-11-20T09:23:23;98332.88;;;-2.15;76.34
20710;BME280;10516;51.518;9.864;2022-11-20T09:25:48;98345.06;;;-1.00;73.77
20710;BME280;10516;51.518;9.864;2022-11-20T09:28:13;98336.59;;;-0.81;72.97
20710;BME280;10516;51.518;9.864;2022-11-20T09:30:39;98337.38;;;-2.09;74.27
20710;BME280;10516;51.518;9.864;2022-11-20T09:33:05;98341.19;;;-2.78;78.99
20710;BME280;10516;51.518;9.864;2022-11-20T09:35:31;98309.72;;;-2.03;78.33
20710;BME280;10516;51.518;9.864;2022-11-20T09:37:57;98307.59;;;-1.79;74.98
20710;BME280;10516;51.518;9.864;2022-11-20T09:40:27;98306.19;;;-2.54;78.44
20710;BME280;10516;51.518;9.864;2022-11-20T09:48:42;98318.97;;;-2.01;76.88
20710;BME280;10516;51.518;9.864;2022-11-20T09:54:04;98324.81;;;-1.13;74.84
20710;BME280;10516;51.518;9.864;2022-11-20T09:56:33;98322.69;;;-1.03;74.67
20710;BME280;10516;51.518;9.864;2022-11-20T09:59:02;98326.75;;;-1.21;73.37
20710;BME280;10516;51.518;9.864;2022-11-20T10:01:32;98289.88;;;-1.62;75.49
20710;BME280;10516;51.518;9.864;2022-11-20T10:04:08;98315.56;;;-1.87;76.14
20710;BME280;10516;51.518;9.864;2022-11-20T10:06:43;98305.78;;;-2.95;81.43
20710;BME280;10516;51.518;9.864;2022-11-20T10:12:03;98319.91;;;-1.22;75.87
20710;BME280;10516;51.518;9.864;2022-11-20T10:14:42;98281.00;;;-3.59;81.82
20710;BME280;10516;51.518;9.864;2022-11-20T10:17:28;98314.38;;;-1.84;79.53
20710;BME280;10516;51.518;9.864;2022-11-20T10:20:02;98307.72;;;-2.01;78.60
20710;BME280;10516;51.518;9.864;2022-11-20T10:25:31;98300.78;;;-1.37;76.06
20710;BME280;10516;51.518;9.864;2022-11-20T10:28:27;98308.16;;;-1.26;77.45
20710;BME280;10516;51.518;9.864;2022-11-20T10:31:00;98287.06;;;-1.25;75.59
20710;BME280;10516;51.518;9.864;2022-11-20T10:33:33;98291.81;;;-1.71;77.48
20710;BME280;10516;51.518;9.864;2022-11-20T10:36:23;98305.78;;;-1.78;79.02
20710;BME280;10516;51.518;9.864;2022-11-20T10:41:49;98292.31;;;-1.39;75.93
20710;BME280;10516;51.518;9.864;2022-11-20T10:44:36;98307.19;;;-1.61;78.86
20710;BME280;10516;51.518;9.864;2022-11-20T10:47:20;98276.00;;;-2.13;77.52
20710;BME280;10516;51.518;9.864;2022-11-20T10:49:50;98293.09;;;-1.03;76.88
20710;BME280;10516;51.518;9.864;2022-11-20T11:00:44;98266.78;;;-0.61;75.61
20710;BME280;10516;51.518;9.864;2022-11-20T11:03:29;98276.28;;;-0.26;74.00
20710;BME280;10516;51.518;9.864;2022-11-20T11:08:26;98258.66;;;0.03;73.18
20710;BME280;10516;51.518;9.864;2022-11-20T11:10:59;98240.25;;;-0.11;73.23
20710;BME280;10516;51.518;9.864;2022-11-20T11:13:30;98249.94;;;-0.45;75.32
20710;BME280;10516;51.518;9.864;2022-11-20T11:15:57;98256.13;;;-1.15;75.96
20710;BME280;10516;51.518;9.864;2022-11-20T11:18:33;98249.75;;;-0.10;75.35
20710;BME280;10516;51.518;9.864;2022-11-20T11:21:01;98253.47;;;0.22;73.54
20710;BME280;10516;51.518;9.864;2022-11-20T11:26:00;98246.91;;;-0.08;74.37
20710;BME280;10516;51.518;9.864;2022-11-20T11:28:26;98225.31;;;-1.13;79.03
20710;BME280;10516;51.518;9.864;2022-11-20T11:30:53;98216.22;;;-0.89;76.52
20710;BME280;10516;51.518;9.864;2022-11-20T11:33:24;98221.91;;;-1.34;79.11
20710;BME280;10516;51.518;9.864;2022-11-20T11:35:52;98237.88;;;0.01;75.82
20710;BME280;10516;51.518;9.864;2022-11-20T11:38:45;98232.31;;;0.30;74.97
20710;BME280;10516;51.518;9.864;2022-11-20T11:41:20;98217.03;;;-0.20;75.54
20710;BME280;10516;51.518;9.864;2022-11-20T11:43:53;98234.50;;;0.20;74.36
20710;BME280;10516;51.518;9.864;2022-11-20T11:46:39;98226.00;;;0.12;74.66
20710;BME280;10516;51.518;9.864;2022-11-20T11:54:45;98218.03;;;-1.17;77.61
20710;BME280;10516;51.518;9.864;2022-11-20T12:02:42;98222.44;;;-1.18;81.32
20710;BME280;10516;51.518;9.864;2022-11-20T12:10:22;98204.22;;;0.24;75.70
20710;BME280;10516;51.518;9.864;2022-11-20T12:12:52;98210.09;;;0.20;74.11
20710;BME280;10516;51.518;9.864;2022-11-20T12:15:31;98190.94;;;0.26;74.16
20710;BME280;10516;51.518;9.864;2022-11-20T12:17:58;98199.38;;;0.08;75.09
20710;BME280;10516;51.518;9.864;2022-11-20T12:20:28;98201.00;;;0.29;75.09
20710;BME280;10516;51.518;9.864;2022-11-20T12:23:11;98147.53;;;-0.50;75.31
20710;BME280;10516;51.518;9.864;2022-11-20T12:25:43;98188.69;;;0.29;74.58
20710;BME280;10516;51.518;9.864;2022-11-20T12:33:51;98165.94;;;0.69;74.52
20710;BME280;10516;51.518;9.864;2022-11-20T12:53:00;98174.19;;;0.99;73.26
20710;BME280;10516;51.518;9.864;2022-11-20T12:55:39;98157.22;;;0.62;74.65
20710;BME280;10516;51.518;9.864;2022-11-20T12:58:24;98167.53;;;0.83;73.90
20710;BME280;10516;51.518;9.864;2022-11-20T13:01:00;98166.91;;;1.01;73.33
20710;BME280;10516;51.518;9.864;2022-11-20T13:03:51;98158.84;;;0.89;72.44
20710;BME280;10516;51.518;9.864;2022-11-20T13:06:20;98159.47;;;0.85;72.59
20710;BME280;10516;51.518;9.864;2022-11-20T13:09:08;98152.38;;;0.92;72.09
20710;BME280;10516;51.518;9.864;2022-11-20T13:17:43;98166.13;;;1.00;72.52
20710;BME280;10516;51.518;9.864;2022-11-20T13:20:16;98156.84;;;0.78;72.71
20710;BME280;10516;51.518;9.864;2022-11-20T13:22:53;98156.44;;;1.58;71.58
20710;BME280;10516;51.518;9.864;2022-11-20T13:25:33;98158.91;;;1.46;71.88
20710;BME280;10516;51.518;9.864;2022-11-20T13:30:35;98145.13;;;2.33;70.27
20710;BME280;10516;51.518;9.864;2022-11-20T13:33:25;98092.63;;;2.13;70.15
20710;BME280;10516;51.518;9.864;2022-11-20T13:36:22;98132.69;;;2.15;71.24
20710;BME280;10516;51.518;9.864;2022-11-20T13:38:50;98144.25;;;2.39;70.46
20710;BME280;10516;51.518;9.864;2022-11-20T13:41:34;98133.28;;;2.49;69.99
20710;BME280;10516;51.518;9.864;2022-11-20T13:46:45;98142.81;;;2.43;70.15
20710;BME280;10516;51.518;9.864;2022-11-20T13:51:48;98128.06;;;2.11;70.63
20710;BME280;10516;51.518;9.864;2022-11-20T13:57:30;98147.75;;;2.02;70.54
20710;BME280;10516;51.518;9.864;2022-11-20T14:00:20;98138.47;;;1.93;71.08
20710;BME280;10516;51.518;9.864;2022-11-20T14:02:59;98142.75;;;1.94;70.82
20710;BME280;10516;51.518;9.864;2022-11-20T14:05:26;98123.16;;;1.83;70.97
20710;BME280;10516;51.518;9.864;2022-11-20T14:07:52;98100.59;;;1.12;69.88
20710;BME280;10516;51.518;9.864;2022-11-20T14:10:25;98126.06;;;1.69;71.62
20710;BME280;10516;51.518;9.864;2022-11-20T14:12:51;98125.84;;;1.77;71.50
20710;BME280;10516;51.518;9.864;2022-11-20T14:15:32;98116.47;;;1.43;70.74
20710;BME280;10516;51.518;9.864;2022-11-20T14:17:59;98116.41;;;1.56;71.50
20710;BME280;10516;51.518;9.864;2022-11-20T14:20:27;98119.00;;;1.63;71.64
20710;BME280;10516;51.518;9.864;2022-11-20T14:22:54;98120.69;;;1.50;71.74
20710;BME280;10516;51.518;9.864;2022-11-20T14:25:22;98116.06;;;1.46;71.36
20710;BME280;10516;51.518;9.864;2022-11-20T14:27:59;98120.16;;;1.35;71.53
20710;BME280;10516;51.518;9.864;2022-11-20T14:30:27;98128.38;;;1.52;71.06
20710;BME280;10516;51.518;9.864;2022-11-20T14:32:56;98102.13;;;1.39;71.37
20710;BME280;10516;51.518;9.864;2022-11-20T14:35:28;98117.28;;;1.43;70.99
20710;BME280;10516;51.518;9.864;2022-11-20T14:37:54;98067.44;;;1.17;71.61
20710;BME280;10516;51.518;9.864;2022-11-20T14:40:35;98105.56;;;1.39;71.56
20710;BME280;10516;51.518;9.864;2022-11-20T14:43:15;98104.53;;;1.40;70.88
20710;BME280;10516;51.518;9.864;2022-11-20T14:45:41;98105.56;;;1.39;71.42
20710;BME280;10516;51.518;9.864;2022-11-20T14:48:09;98074.66;;;1.28;71.45